Bei Facebook empfehlenBei Twitter postenGoogle plusPinterest

Das Wetter im Erzgebirge am 06.01.2016

Wetter und Klima am 06.01.2016 Holzhau im Erzgebirge (630m ü.NN)
Letzte gemessene Temperatur und Uhrzeit der Messung23:45:00 Uhr0.00 °C
Temperatur (Maximum / Höchstwert) und Uhrzeit der Messung13:15:00 Uhr2.90 °C
Temperatur (Minimum / Tiefstwert) und Uhrzeit der Messung00:15:00-1.10 °C
Errechneter Absolutwert der Temperaturschwankungen zwischen Tmin und Tmax des Tages4.00 K
Errechnete Tagesmitteltemperatur0.27500 °C
Gesamt - Niederschlag des Tages (in flüssiger Form)1.03 Liter / m²
Luftdruck (Maximum / Höchstwert) und Zeitpunkt der Messung22:15:00 Uhr997.90 hPa
Luftdruck (Minimum / Tiefstwert) und Zeitpunkt der Messung04:30:00 Uhr995.10 hPa
Errechneter Absolutwert der Luftdruckschwankungen des Tages2.80 hPa
Höchste gemessene Windgeschwindigkeit und Uhrzeit der Messung08:30:00 Uhr2.88 km/h
Errechnete Windhäufigkeit in Relation zu den Messwerten des Tages6.25000 %
Niedrigste Windkühle (Windchill) und Zeitpunkt der Messung00:15:00 Uhr-1.10 °C
Taupunkt (Maximum / Höchstwert) und Uhrzeit der Messung12:45:00 Uhr1.80 °C
Taupunkt (Minimum / Tiefstwert) und Uhrzeit der Messung00:15:00-2.20 °C
Anzahl der automatisch eingelesenen Messwerte 96

Detaillierte Wetter- und Klima- Messwerte für den 06.01.2016 in Holzhau im Erzgebirge (630m ü.NN)
ZeitTemperaturLuftdruckRel. LuftfeuchteWindWindrichtungWindchillTaupunktNiederschlag l/m²
23:45:000.00 °C997.70 hPa93.00 %-1.10 °C1.03
23:30:000.00 °C997.80 hPa93.00 %-1.10 °C1.03
23:15:000.10 °C997.80 hPa93.00 %-0.90 °C1.03
23:00:000.10 °C997.70 hPa92.00 %-1.00 °C1.03
22:45:000.10 °C997.70 hPa92.00 %-1.00 °C1.03
22:30:000.10 °C997.80 hPa92.00 %-1.00 °C1.03
22:15:000.20 °C997.90 hPa92.00 %-0.90 °C1.03
22:00:000.20 °C997.90 hPa92.00 %-0.90 °C1.03
21:45:000.20 °C997.80 hPa92.00 %-0.90 °C1.03
21:30:000.20 °C997.70 hPa92.00 %-0.90 °C1.03
21:15:000.30 °C997.70 hPa92.00 %-0.80 °C1.03
21:00:000.30 °C997.40 hPa92.00 %-0.80 °C1.03
20:45:000.30 °C997.40 hPa92.00 %-0.80 °C1.03
20:30:000.30 °C997.40 hPa92.00 %-0.80 °C1.03
20:15:000.30 °C997.30 hPa92.00 %-0.80 °C1.03
20:00:000.30 °C997.40 hPa92.00 %-0.80 °C1.03
19:45:000.30 °C997.40 hPa92.00 %-0.80 °C1.03
19:30:000.20 °C997.30 hPa92.00 %-0.90 °C1.03
19:15:000.20 °C997.40 hPa92.00 %-0.90 °C1.03
19:00:000.20 °C997.30 hPa91.00 %-1.10 °C1.03
18:45:000.20 °C997.40 hPa91.00 %-1.10 °C1.03
18:30:000.20 °C997.40 hPa91.00 %-1.10 °C1.03
18:15:000.20 °C997.30 hPa91.00 %-1.10 °C1.03
18:00:000.20 °C997.10 hPa91.00 %-1.10 °C1.03
17:45:000.30 °C997.30 hPa91.00 %-1.00 °C1.03
17:30:000.40 °C997.20 hPa91.00 %-0.90 °C1.03
17:15:000.40 °C997.30 hPa90.00 %-1.00 °C1.03
17:00:000.60 °C997.30 hPa90.00 %-0.80 °C1.03
16:45:000.90 °C997.20 hPa90.00 %-0.50 °C1.03
16:30:001.10 °C997.30 hPa90.00 %-0.40 °C1.03
16:15:001.30 °C997.30 hPa90.00 %-0.20 °C1.03
16:00:001.60 °C997.10 hPa90.00 %0.10 °C1.03
15:45:001.90 °C997.10 hPa90.00 %0.40 °C1.03
15:30:002.20 °C997.20 hPa90.00 %0.70 °C1.03
15:15:002.40 °C997.10 hPa90.00 %0.90 °C1.03
15:00:002.40 °C996.90 hPa90.00 %0.90 °C1.03
14:45:002.40 °C996.80 hPa90.00 %0.90 °C1.03
14:30:002.40 °C997.00 hPa90.00 %0.90 °C1.03
14:15:002.40 °C996.80 hPa91.00 %1.10 °C1.03
14:00:002.80 °C997.00 hPa91.00 %1.50 °C0.51
13:45:002.80 °C997.10 hPa91.00 %1.50 °C0.51
13:30:002.70 °C996.90 hPa91.00 %1.40 °C0.51
13:15:002.90 °C997.10 hPa92.00 %1.70 °C0.51
13:00:002.90 °C997.10 hPa92.00 %1.70 °C0.51
12:45:002.80 °C997.10 hPa93.00 %1.80 °C0.51
12:30:002.50 °C997.00 hPa93.00 %1.50 °C0.51
12:15:002.10 °C997.00 hPa93.00 %1.10 °C0.51
12:00:001.60 °C997.00 hPa94.00 %0.70 °C0.51
11:45:001.30 °C997.00 hPa93.00 %0.30 °C 
11:30:001.10 °C997.00 hPa93.00 %0.10 °C 
11:15:000.80 °C997.00 hPa94.00 %-0.10 °C 
11:00:000.40 °C997.00 hPa94.00 %-0.50 °C 
10:45:000.10 °C997.00 hPa94.00 %-0.70 °C 
10:30:00-0.20 °C997.00 hPa94.00 %-1.10 °C 
10:15:00-0.40 °C997.00 hPa94.00 %-1.30 °C 
10:00:00-0.40 °C996.80 hPa94.00 %-1.30 °C 
09:45:00-0.40 °C996.40 hPa94.00 %1.80 km/hO-0.40 °C-1.30 °C 
09:30:00-0.60 °C996.40 hPa94.00 %-1.50 °C 
09:15:00-0.70 °C996.30 hPa94.00 %-1.60 °C 
09:00:00-0.70 °C996.10 hPa94.00 %-1.60 °C 
08:45:00-0.70 °C996.00 hPa94.00 %-1.60 °C 
08:30:00-0.70 °C995.90 hPa94.00 %2.88 km/hOSO-0.70 °C-1.60 °C 
08:15:00-0.70 °C995.90 hPa94.00 %1.08 km/hOSO-0.70 °C-1.60 °C 
08:00:00-0.70 °C995.80 hPa94.00 %-1.60 °C 
07:45:00-0.60 °C995.70 hPa94.00 %-1.50 °C 
07:30:00-0.60 °C995.50 hPa94.00 %-1.50 °C 
07:15:00-0.60 °C995.50 hPa94.00 %-1.50 °C 
07:00:00-0.50 °C995.40 hPa94.00 %-1.40 °C 
06:45:00-0.60 °C995.40 hPa94.00 %-1.50 °C 
06:30:00-0.70 °C995.50 hPa93.00 %-1.80 °C 
06:15:00-0.70 °C995.40 hPa93.00 %-1.80 °C 
06:00:00-0.70 °C995.40 hPa93.00 %-1.80 °C 
05:45:00-0.70 °C995.40 hPa93.00 %-1.80 °C 
05:30:00-0.60 °C995.40 hPa94.00 %-1.50 °C 
05:15:00-0.60 °C995.30 hPa94.00 %-1.50 °C 
05:00:00-0.60 °C995.40 hPa94.00 %-1.50 °C 
04:45:00-0.60 °C995.20 hPa94.00 %-1.50 °C 
04:30:00-0.60 °C995.10 hPa94.00 %-1.50 °C 
04:15:00-0.70 °C995.20 hPa93.00 %-1.80 °C 
04:00:00-0.70 °C995.30 hPa93.00 %-1.80 °C 
03:45:00-0.70 °C995.40 hPa93.00 %-1.80 °C 
03:30:00-0.60 °C995.40 hPa94.00 %-1.50 °C 
03:15:00-0.60 °C995.40 hPa94.00 %-1.50 °C 
03:00:00-0.40 °C995.40 hPa94.00 %2.88 km/hSW-0.40 °C-1.30 °C 
02:45:00-0.40 °C995.30 hPa94.00 %-1.30 °C 
02:30:00-0.40 °C995.40 hPa94.00 %-1.30 °C 
02:15:00-0.50 °C995.30 hPa94.00 %-1.40 °C 
02:00:00-0.60 °C995.40 hPa94.00 %1.80 km/hSSW-0.60 °C-1.50 °C 
01:45:00-0.70 °C995.20 hPa93.00 %-1.80 °C 
01:30:00-0.80 °C995.30 hPa93.00 %-1.90 °C 
01:15:00-0.80 °C995.20 hPa93.00 %-1.90 °C 
01:00:00-0.90 °C995.10 hPa93.00 %-2.00 °C 
00:45:00-0.90 °C995.10 hPa93.00 %-2.00 °C 
00:30:00-1.00 °C995.20 hPa93.00 %1.08 km/hSO-1.00 °C-2.10 °C 
00:15:00-1.10 °C995.10 hPa93.00 %-2.20 °C 
00:00:00-1.10 °C995.20 hPa93.00 %-2.20 °C 

Permanenter Link zu dieser Seite: Wetter im Erzgebirge am 06.01.2016
Performance-Info: Die Erstellung der Seite / Statistik(en) / Tabelle(n) erforderte 5 Datenbankserver-Abfrage(n) und dauerte 100 Millisekunden. (Dieser Messwert ist von der Gesamt-Auslastung des Servers abhängig.)
Erzgebirge - Wetter | Erzgebirge - Wetter (Mobilgeräte) | Komplette Klimadatenbank